createdAt,value
2022-11-24T00:00:31.458Z,2.60
2022-11-24T00:03:33.518Z,2.70
2022-11-24T00:06:36.219Z,2.47
2022-11-24T00:09:37.864Z,2.40
2022-11-24T00:12:39.516Z,2.40
2022-11-24T00:15:41.156Z,2.60
2022-11-24T00:18:44.885Z,2.50
2022-11-24T00:21:46.578Z,2.70
2022-11-24T00:24:48.211Z,3.13
2022-11-24T00:27:49.864Z,1.80
2022-11-24T00:30:51.510Z,3.20
2022-11-24T00:33:55.513Z,2.30
2022-11-24T00:36:57.254Z,2.80
2022-11-24T00:39:58.892Z,3.40
2022-11-24T00:43:00.610Z,1.83
2022-11-24T00:46:02.444Z,2.70
2022-11-24T00:49:04.639Z,2.53
2022-11-24T00:52:06.311Z,3.17
2022-11-24T00:55:08.137Z,2.40
2022-11-24T00:58:09.778Z,2.83
2022-11-24T01:01:17.528Z,2.47
2022-11-24T01:04:19.216Z,2.73
2022-11-24T01:07:20.940Z,2.60
2022-11-24T01:10:22.626Z,2.43
2022-11-24T01:13:24.254Z,2.97
2022-11-24T01:16:31.811Z,1.90
2022-11-24T01:19:33.550Z,1.70
2022-11-24T01:22:35.271Z,1.70
2022-11-24T01:25:39.936Z,1.60
2022-11-24T01:28:46.600Z,2.10
2022-11-24T01:31:49.266Z,2.17
2022-11-24T01:34:50.986Z,2.87
2022-11-24T01:37:52.671Z,1.73
2022-11-24T01:41:04.712Z,1.90
2022-11-24T01:44:27.181Z,2.10
2022-11-24T01:47:36.396Z,2.23
2022-11-24T01:50:38.547Z,2.27
2022-11-24T01:53:43.756Z,1.90
2022-11-24T01:56:51.372Z,2.00
2022-11-24T01:59:59.599Z,2.00
2022-11-24T02:03:01.581Z,1.80
2022-11-24T02:06:09.096Z,1.70
2022-11-24T02:09:23.053Z,1.93
2022-11-24T02:12:26.832Z,2.57
2022-11-24T02:15:28.969Z,2.17
2022-11-24T02:18:30.840Z,1.33
2022-11-24T02:21:32.852Z,2.70
2022-11-24T02:24:51.884Z,2.03
2022-11-24T02:27:55.840Z,2.10
2022-11-24T02:30:59.657Z,1.70
2022-11-24T02:34:01.368Z,2.57
2022-11-24T02:37:04.145Z,2.13
2022-11-24T02:40:06.455Z,2.00
2022-11-24T02:43:12.294Z,2.33
2022-11-24T02:46:14.287Z,2.37
2022-11-24T02:49:16.275Z,1.90
2022-11-24T02:52:18.158Z,2.37
2022-11-24T02:55:20.217Z,1.87
2022-11-24T02:58:22.028Z,1.90
2022-11-24T03:01:23.761Z,2.03
2022-11-24T03:04:25.495Z,2.80
2022-11-24T03:07:27.272Z,1.77
2022-11-24T03:10:29.161Z,2.07
2022-11-24T03:13:30.846Z,2.27
2022-11-24T03:16:33.365Z,2.77
2022-11-24T03:19:35.020Z,1.63
2022-11-24T03:22:36.996Z,1.90
2022-11-24T03:25:38.709Z,1.90
2022-11-24T03:28:41.284Z,1.27
2022-11-24T03:31:43.186Z,2.17
2022-11-24T03:34:44.916Z,1.73
2022-11-24T03:37:46.629Z,2.27
2022-11-24T03:40:48.274Z,2.63
2022-11-24T03:43:49.910Z,1.80
2022-11-24T03:46:52.074Z,2.80
2022-11-24T03:49:53.730Z,2.67
2022-11-24T03:52:55.359Z,2.13
2022-11-24T03:55:57.669Z,2.60
2022-11-24T03:58:59.264Z,1.60
2022-11-24T04:02:00.969Z,1.93
2022-11-24T04:05:02.662Z,1.83
2022-11-24T04:08:05.250Z,2.30
2022-11-24T04:11:07.154Z,1.70
2022-11-24T04:14:13.324Z,2.20
2022-11-24T04:17:15.566Z,1.93
2022-11-24T04:20:17.617Z,1.80
2022-11-24T04:23:19.756Z,2.10
2022-11-24T04:26:21.400Z,2.37
2022-11-24T04:29:23.079Z,2.13
2022-11-24T04:32:24.809Z,1.87
2022-11-24T04:35:26.508Z,2.07
2022-11-24T04:39:25.775Z,1.60
2022-11-24T04:41:49.848Z,2.63
2022-11-24T04:44:51.510Z,2.27
2022-11-24T04:47:53.194Z,1.83
2022-11-24T04:50:54.931Z,2.20
2022-11-24T04:53:56.574Z,1.93
2022-11-24T04:56:58.264Z,2.53
2022-11-24T04:59:59.948Z,2.23
2022-11-24T05:03:01.747Z,3.07
2022-11-24T05:06:03.631Z,2.03
2022-11-24T05:09:08.175Z,2.43
2022-11-24T05:12:09.879Z,1.83
2022-11-24T05:15:11.565Z,1.83
2022-11-24T05:18:16.255Z,3.53
2022-11-24T05:21:17.929Z,2.50
2022-11-24T05:24:19.619Z,2.60
2022-11-24T05:27:21.461Z,2.33
2022-11-24T05:30:23.231Z,2.73
2022-11-24T05:33:24.875Z,2.20
2022-11-24T05:36:44.960Z,3.37
2022-11-24T05:39:46.797Z,2.53
2022-11-24T05:42:48.511Z,2.70
2022-11-24T05:45:50.163Z,1.83
2022-11-24T05:48:51.828Z,2.70
2022-11-24T05:51:53.462Z,2.50
2022-11-24T05:54:55.097Z,2.50
2022-11-24T05:58:01.394Z,3.00
2022-11-24T06:01:06.659Z,3.17
2022-11-24T06:04:08.327Z,2.87
2022-11-24T06:07:11.826Z,2.23
2022-11-24T06:10:14.523Z,2.10
2022-11-24T06:13:16.229Z,3.00
2022-11-24T06:16:18.094Z,2.60
2022-11-24T06:19:19.770Z,3.00
2022-11-24T06:22:21.530Z,2.27
2022-11-24T06:25:23.177Z,2.50
2022-11-24T06:28:25.275Z,2.23
2022-11-24T06:31:27.177Z,2.57
2022-11-24T06:34:28.984Z,3.70
2022-11-24T06:37:30.691Z,2.87
2022-11-24T06:40:32.347Z,2.30
2022-11-24T06:43:35.008Z,2.40
2022-11-24T06:46:36.645Z,2.80
2022-11-24T06:49:38.282Z,2.47
2022-11-24T06:52:40.036Z,3.33
2022-11-24T06:55:42.298Z,2.63
2022-11-24T06:58:46.457Z,2.87
2022-11-24T07:01:48.433Z,2.20
2022-11-24T07:04:50.093Z,3.43
2022-11-24T07:07:51.916Z,2.13
2022-11-24T07:10:53.720Z,2.03
2022-11-24T07:14:00.076Z,2.70
2022-11-24T07:17:02.565Z,3.10
2022-11-24T07:20:06.200Z,2.43
2022-11-24T07:23:08.776Z,2.90
2022-11-24T07:26:11.232Z,3.17
2022-11-24T07:29:12.883Z,1.97
2022-11-24T07:32:14.561Z,2.67
2022-11-24T07:35:16.293Z,2.00
2022-11-24T07:38:17.996Z,2.33
2022-11-24T07:41:20.489Z,3.23
2022-11-24T07:44:22.165Z,2.43
2022-11-24T07:47:23.795Z,2.20
2022-11-24T07:50:25.635Z,2.40
2022-11-24T07:53:27.924Z,2.23
2022-11-24T07:56:29.610Z,1.90
2022-11-24T07:59:31.248Z,1.60
2022-11-24T08:02:33.712Z,2.07
2022-11-24T08:05:38.447Z,1.53
2022-11-24T08:08:50.927Z,2.30
2022-11-24T08:11:52.605Z,2.30
2022-11-24T08:14:54.247Z,1.70
2022-11-24T08:17:55.892Z,1.57
2022-11-24T08:20:58.939Z,2.87
2022-11-24T08:24:00.623Z,2.57
2022-11-24T08:27:02.358Z,1.63
2022-11-24T08:30:04.383Z,1.37
2022-11-24T08:33:06.039Z,2.83
2022-11-24T08:36:13.248Z,1.90
2022-11-24T08:39:14.944Z,1.57
2022-11-24T08:42:16.721Z,1.50
2022-11-24T08:45:21.205Z,1.60
2022-11-24T08:48:23.625Z,1.87
2022-11-24T08:51:26.700Z,2.33
2022-11-24T08:54:28.551Z,2.17
2022-11-24T08:57:30.192Z,4.07
2022-11-24T09:00:31.884Z,1.47
2022-11-24T09:03:34.417Z,1.53
2022-11-24T09:06:36.097Z,1.70
2022-11-24T09:09:37.778Z,1.70
2022-11-24T09:12:39.464Z,1.57
2022-11-24T09:15:41.376Z,1.00
2022-11-24T09:18:43.432Z,1.97
2022-11-24T09:21:45.104Z,1.30
2022-11-24T09:24:46.945Z,2.60
2022-11-24T09:27:48.590Z,1.17
2022-11-24T09:30:50.284Z,1.00
2022-11-24T09:33:52.457Z,1.20
2022-11-24T09:36:54.112Z,1.47
2022-11-24T09:39:55.771Z,1.60
2022-11-24T09:43:23.163Z,0.83
2022-11-24T09:46:43.296Z,1.37
2022-11-24T09:50:06.375Z,1.60
2022-11-24T09:53:21.182Z,0.80
2022-11-24T09:56:29.083Z,1.63
2022-11-24T09:59:30.963Z,1.20
2022-11-24T10:02:32.645Z,1.40
2022-11-24T10:05:36.347Z,1.23
2022-11-24T10:09:03.129Z,1.30
2022-11-24T10:12:28.801Z,1.10
2022-11-24T10:15:40.913Z,1.23
2022-11-24T10:19:00.458Z,1.10
2022-11-24T10:22:27.743Z,1.07
2022-11-24T10:25:42.402Z,1.30
2022-11-24T10:28:53.408Z,1.37
2022-11-24T10:31:56.555Z,0.80
2022-11-24T10:35:16.042Z,1.07
2022-11-24T10:38:20.903Z,1.10
2022-11-24T10:41:37.174Z,1.20
2022-11-24T10:44:40.951Z,1.10
2022-11-24T10:47:43.651Z,1.10
2022-11-24T10:50:45.465Z,2.73
2022-11-24T10:53:48.551Z,3.03
2022-11-24T10:56:52.279Z,3.00
2022-11-24T10:59:53.932Z,1.80
2022-11-24T11:03:17.539Z,1.60
2022-11-24T11:06:30.362Z,1.53
2022-11-24T11:09:32.131Z,2.20
2022-11-24T11:12:44.014Z,2.07
2022-11-24T11:15:46.620Z,1.57
2022-11-24T11:18:49.243Z,1.30
2022-11-24T11:22:11.236Z,1.57
2022-11-24T11:25:12.839Z,1.70
2022-11-24T11:28:18.416Z,2.47
2022-11-24T11:31:22.257Z,1.67
2022-11-24T11:34:30.014Z,1.90
2022-11-24T11:37:33.560Z,1.17
2022-11-24T11:40:35.486Z,1.43
2022-11-24T11:43:40.903Z,1.60
2022-11-24T11:46:43.882Z,1.50
2022-11-24T11:49:48.871Z,1.80
2022-11-24T11:52:59.423Z,1.43
2022-11-24T11:56:15.339Z,1.87
2022-11-24T11:59:25.907Z,1.77
2022-11-24T12:02:57.111Z,1.63
2022-11-24T12:06:10.279Z,1.50
2022-11-24T12:09:21.382Z,1.07
2022-11-24T12:12:36.333Z,1.20
2022-11-24T12:15:54.076Z,2.10
2022-11-24T12:19:36.631Z,1.50
2022-11-24T12:22:59.874Z,1.63
2022-11-24T12:26:32.641Z,1.40
2022-11-24T12:29:48.107Z,1.20
2022-11-24T12:33:14.167Z,2.27
2022-11-24T12:36:15.896Z,3.03
2022-11-24T12:39:44.367Z,4.47
2022-11-24T12:43:27.226Z,2.73
2022-11-24T12:47:03.692Z,4.13
2022-11-24T12:50:18.615Z,3.23
2022-11-24T12:53:25.417Z,1.77
2022-11-24T12:56:40.564Z,1.50
2022-11-24T13:00:00.211Z,1.97
2022-11-24T13:03:14.070Z,2.27
2022-11-24T13:06:28.049Z,2.43
2022-11-24T13:09:29.759Z,1.87
2022-11-24T13:12:31.572Z,1.27
2022-11-24T13:19:20.169Z,1.60
2022-11-24T13:22:26.049Z,1.70
2022-11-24T13:25:28.818Z,2.10
2022-11-24T13:29:05.675Z,1.53
2022-11-24T13:32:11.738Z,1.73
2022-11-24T13:35:16.159Z,2.03
2022-11-24T13:38:45.794Z,1.50
2022-11-24T13:41:50.410Z,1.67
2022-11-24T13:45:08.816Z,1.53
2022-11-24T13:48:19.552Z,2.63
2022-11-24T13:51:23.835Z,2.17
2022-11-24T13:54:28.454Z,2.03
2022-11-24T13:57:42.673Z,2.03
2022-11-24T14:01:10.730Z,2.07
2022-11-24T14:04:30.539Z,2.20
2022-11-24T14:07:34.176Z,1.37
2022-11-24T14:10:40.550Z,1.70
2022-11-24T14:13:42.244Z,1.83
2022-11-24T14:16:43.886Z,2.30
2022-11-24T14:19:48.402Z,1.40
2022-11-24T14:22:50.351Z,2.03
2022-11-24T14:25:52.960Z,1.70
2022-11-24T14:29:02.570Z,1.87
2022-11-24T14:32:05.040Z,2.30
2022-11-24T14:35:35.577Z,1.53
2022-11-24T14:38:37.362Z,1.93
2022-11-24T14:41:39.266Z,2.30
2022-11-24T14:44:40.910Z,2.43
2022-11-24T14:47:45.538Z,2.03
2022-11-24T14:50:47.310Z,1.93
2022-11-24T14:53:52.125Z,1.77
2022-11-24T14:56:59.481Z,2.37
2022-11-24T15:00:13.440Z,4.13
2022-11-24T15:03:18.886Z,2.27
2022-11-24T15:06:21.278Z,2.47
2022-11-24T15:09:38.263Z,2.40
2022-11-24T15:12:41.990Z,3.83
2022-11-24T15:15:50.718Z,12.40
2022-11-24T15:19:01.527Z,11.20
2022-11-24T15:22:43.407Z,4.50
2022-11-24T15:25:45.335Z,5.73
2022-11-24T15:28:47.210Z,5.67
2022-11-24T15:31:52.547Z,7.23
2022-11-24T15:34:54.691Z,4.17
2022-11-24T15:37:56.364Z,5.77
2022-11-24T15:41:00.045Z,7.53
2022-11-24T15:44:01.828Z,5.00
2022-11-24T15:47:03.571Z,5.30
2022-11-24T15:50:05.908Z,4.80
2022-11-24T15:53:17.837Z,6.20
2022-11-24T15:56:25.634Z,4.97
2022-11-24T15:59:27.372Z,4.47
2022-11-24T16:02:29.128Z,4.40
2022-11-24T16:05:31.923Z,6.40
2022-11-24T16:08:33.604Z,5.90
2022-11-24T16:11:35.254Z,5.00
2022-11-24T16:14:37.225Z,5.10
2022-11-24T16:17:39.148Z,5.53
2022-11-24T16:20:40.892Z,6.57
2022-11-24T16:23:42.643Z,7.40
2022-11-24T16:26:44.288Z,6.80
2022-11-24T16:29:45.969Z,7.17
2022-11-24T16:32:47.659Z,11.13
2022-11-24T16:35:49.743Z,8.27
2022-11-24T16:38:51.374Z,7.33
2022-11-24T16:41:53.067Z,8.60
2022-11-24T16:44:54.968Z,9.90
2022-11-24T16:47:56.658Z,8.10
2022-11-24T16:51:06.289Z,9.60
2022-11-24T16:54:09.364Z,10.30
2022-11-24T16:57:15.009Z,8.20
2022-11-24T17:00:17.414Z,9.80
2022-11-24T17:03:19.174Z,8.93
2022-11-24T17:06:20.963Z,8.67
2022-11-24T17:09:22.627Z,7.60
2022-11-24T17:12:24.275Z,7.20
2022-11-24T17:15:33.465Z,8.43
2022-11-24T17:18:38.804Z,7.40
2022-11-24T17:21:40.521Z,7.17
2022-11-24T17:24:42.205Z,7.67
2022-11-24T17:27:43.982Z,6.73
2022-11-24T17:30:45.672Z,7.07
2022-11-24T17:33:47.936Z,7.13
2022-11-24T17:36:49.595Z,7.30
2022-11-24T17:40:12.896Z,8.33
2022-11-24T17:43:13.170Z,7.00
2022-11-24T17:46:14.857Z,7.33
2022-11-24T17:49:16.601Z,7.53
2022-11-24T17:52:18.795Z,7.37
2022-11-24T17:55:20.679Z,6.87
2022-11-24T17:58:22.311Z,7.40
2022-11-24T18:01:24.438Z,7.30
2022-11-24T18:04:26.143Z,6.73
2022-11-24T18:07:27.836Z,6.00
2022-11-24T18:10:31.661Z,6.23
2022-11-24T18:13:55.801Z,7.43
2022-11-24T18:16:55.973Z,6.77
2022-11-24T18:19:57.748Z,5.90
2022-11-24T18:23:05.980Z,6.27
2022-11-24T18:26:08.349Z,6.33
2022-11-24T18:29:11.527Z,5.40
2022-11-24T18:32:13.296Z,6.97
2022-11-24T18:35:15.108Z,5.73
2022-11-24T18:38:16.783Z,6.77
2022-11-24T18:41:18.512Z,7.10
2022-11-24T18:44:20.236Z,6.63
2022-11-24T18:47:22.123Z,4.63
2022-11-24T18:50:23.775Z,4.20
2022-11-24T18:53:26.596Z,2.17
2022-11-24T18:56:28.380Z,2.97
2022-11-24T18:59:30.047Z,2.57
2022-11-24T19:02:31.748Z,2.73
2022-11-24T19:05:34.652Z,1.77
2022-11-24T19:08:36.396Z,2.80
2022-11-24T19:11:40.218Z,2.50
2022-11-24T19:14:41.899Z,2.00
2022-11-24T19:17:46.151Z,3.07
2022-11-24T19:20:49.084Z,2.87
2022-11-24T19:23:50.768Z,2.47
2022-11-24T19:26:54.307Z,2.30
2022-11-24T19:29:55.956Z,2.30
2022-11-24T19:32:57.819Z,1.67
2022-11-24T19:36:04.664Z,2.07
2022-11-24T19:39:06.890Z,2.00
2022-11-24T19:42:08.599Z,2.53
2022-11-24T19:45:10.691Z,2.10
2022-11-24T19:48:12.385Z,2.27
2022-11-24T19:51:19.088Z,2.33
2022-11-24T19:54:20.754Z,2.03
2022-11-24T19:57:22.428Z,2.70
2022-11-24T20:00:27.898Z,1.90
2022-11-24T20:03:32.443Z,4.23
2022-11-24T20:06:37.618Z,3.03
2022-11-24T20:09:39.321Z,2.33
2022-11-24T20:12:40.972Z,3.73
2022-11-24T20:15:42.624Z,2.03
2022-11-24T20:18:46.027Z,2.17
2022-11-24T20:21:49.820Z,1.80
2022-11-24T20:24:51.524Z,3.03
2022-11-24T20:27:53.248Z,2.37
2022-11-24T20:30:54.953Z,2.60
2022-11-24T20:33:57.450Z,2.53
2022-11-24T20:36:59.135Z,2.77
2022-11-24T20:40:02.954Z,2.47
2022-11-24T20:43:04.622Z,3.07
2022-11-24T20:46:09.495Z,2.87
2022-11-24T20:49:13.933Z,2.23
2022-11-24T20:52:15.571Z,2.00
2022-11-24T20:55:17.366Z,2.40
2022-11-24T20:58:19.094Z,2.50
2022-11-24T21:01:23.941Z,1.80
2022-11-24T21:04:27.022Z,1.60
2022-11-24T21:07:28.740Z,2.37
2022-11-24T21:10:30.413Z,2.37
2022-11-24T21:13:34.051Z,3.70
2022-11-24T21:16:37.696Z,3.50
2022-11-24T21:19:39.410Z,3.77
2022-11-24T21:22:41.083Z,3.63
2022-11-24T21:25:43.467Z,4.87
2022-11-24T21:28:47.000Z,4.97
2022-11-24T21:31:48.851Z,5.97
2022-11-24T21:34:50.555Z,5.17
2022-11-24T21:37:52.187Z,4.93
2022-11-24T21:40:53.863Z,4.67
2022-11-24T21:43:55.930Z,5.53
2022-11-24T21:46:57.615Z,4.63
2022-11-24T21:49:59.270Z,6.53
2022-11-24T21:53:03.615Z,4.17
2022-11-24T21:56:09.705Z,4.67
2022-11-24T21:59:11.397Z,4.13
2022-11-24T22:02:13.539Z,3.60
2022-11-24T22:05:15.332Z,4.23
2022-11-24T22:08:16.983Z,3.13
2022-11-24T22:11:24.510Z,3.87
2022-11-24T22:14:26.694Z,3.93
2022-11-24T22:17:30.926Z,4.03
2022-11-24T22:20:32.593Z,4.30
2022-11-24T22:23:35.839Z,3.87
2022-11-24T22:26:37.737Z,4.23
2022-11-24T22:29:39.406Z,4.23
2022-11-24T22:32:41.055Z,3.67
2022-11-24T22:35:42.715Z,3.37
2022-11-24T22:38:44.563Z,3.50
2022-11-24T22:41:46.314Z,3.83
2022-11-24T22:44:48.021Z,3.97
2022-11-24T22:47:54.344Z,3.50
2022-11-24T22:51:04.594Z,2.77
2022-11-24T22:54:06.451Z,2.90
2022-11-24T22:57:08.160Z,2.63
2022-11-24T23:00:10.289Z,2.67
2022-11-24T23:03:12.119Z,2.27
2022-11-24T23:06:19.552Z,2.40
2022-11-24T23:09:21.244Z,2.50
2022-11-24T23:12:23.058Z,1.80
2022-11-24T23:15:24.757Z,2.43
2022-11-24T23:18:26.424Z,2.77
2022-11-24T23:21:30.640Z,1.83
2022-11-24T23:24:32.426Z,2.07
2022-11-24T23:27:34.218Z,1.87
2022-11-24T23:30:36.058Z,1.80
2022-11-24T23:33:38.104Z,1.93
2022-11-24T23:36:39.843Z,1.77
2022-11-24T23:39:41.589Z,1.67
2022-11-24T23:42:47.433Z,1.60
2022-11-24T23:45:49.194Z,1.70
2022-11-24T23:48:52.850Z,1.60
2022-11-24T23:51:54.568Z,1.63
2022-11-24T23:54:56.290Z,1.43
2022-11-24T23:57:58.140Z,2.23
